sensor_id;sensor_type;location;lat;lon;timestamp;pressure;altitude;pressure_sealevel;temperature
85096;BMP280;75436;53.502;10.030;2024-03-08T00:01:06;102055.66;;;1.50
85096;BMP280;75436;53.502;10.030;2024-03-08T00:03:32;102059.28;;;1.49
85096;BMP280;75436;53.502;10.030;2024-03-08T00:05:58;102058.78;;;1.40
85096;BMP280;75436;53.502;10.030;2024-03-08T00:08:23;102055.41;;;1.40
85096;BMP280;75436;53.502;10.030;2024-03-08T00:10:49;102054.09;;;1.31
85096;BMP280;75436;53.502;10.030;2024-03-08T00:13:14;102041.63;;;1.28
85096;BMP280;75436;53.502;10.030;2024-03-08T00:15:40;102032.38;;;1.32
85096;BMP280;75436;53.502;10.030;2024-03-08T00:18:06;102031.72;;;1.25
85096;BMP280;75436;53.502;10.030;2024-03-08T00:20:31;102034.50;;;1.24
85096;BMP280;75436;53.502;10.030;2024-03-08T00:22:57;102016.59;;;1.22
85096;BMP280;75436;53.502;10.030;2024-03-08T00:25:23;102016.84;;;1.21
85096;BMP280;75436;53.502;10.030;2024-03-08T00:27:48;102015.03;;;1.21
85096;BMP280;75436;53.502;10.030;2024-03-08T00:30:21;102000.72;;;1.19
85096;BMP280;75436;53.502;10.030;2024-03-08T00:32:50;102001.38;;;1.14
85096;BMP280;75436;53.502;10.030;2024-03-08T00:35:15;102010.34;;;1.12
85096;BMP280;75436;53.502;10.030;2024-03-08T00:37:41;102003.22;;;1.07
85096;BMP280;75436;53.502;10.030;2024-03-08T00:40:13;102005.81;;;1.07
85096;BMP280;75436;53.502;10.030;2024-03-08T00:42:38;102000.06;;;1.05
85096;BMP280;75436;53.502;10.030;2024-03-08T00:45:05;101985.75;;;1.03
85096;BMP280;75436;53.502;10.030;2024-03-08T00:47:30;101995.97;;;0.98
85096;BMP280;75436;53.502;10.030;2024-03-08T00:49:56;101976.50;;;0.96
85096;BMP280;75436;53.502;10.030;2024-03-08T00:52:22;101972.69;;;0.98
85096;BMP280;75436;53.502;10.030;2024-03-08T00:54:49;101967.72;;;0.97
85096;BMP280;75436;53.502;10.030;2024-03-08T00:57:14;101957.63;;;0.95
85096;BMP280;75436;53.502;10.030;2024-03-08T00:59:40;101957.25;;;0.92
85096;BMP280;75436;53.502;10.030;2024-03-08T01:02:05;101951.94;;;0.87
85096;BMP280;75436;53.502;10.030;2024-03-08T01:04:31;101942.22;;;0.82
85096;BMP280;75436;53.502;10.030;2024-03-08T01:06:58;101933.09;;;0.80
85096;BMP280;75436;53.502;10.030;2024-03-08T01:09:25;101934.75;;;0.74
85096;BMP280;75436;53.502;10.030;2024-03-08T01:11:52;101922.03;;;0.73
85096;BMP280;75436;53.502;10.030;2024-03-08T01:14:21;101914.09;;;0.74
85096;BMP280;75436;53.502;10.030;2024-03-08T01:16:48;101906.47;;;0.79
85096;BMP280;75436;53.502;10.030;2024-03-08T01:19:14;101901.72;;;0.76
85096;BMP280;75436;53.502;10.030;2024-03-08T01:21:41;101892.25;;;0.70
85096;BMP280;75436;53.502;10.030;2024-03-08T01:24:06;101893.47;;;0.68
85096;BMP280;75436;53.502;10.030;2024-03-08T01:26:32;101897.91;;;0.61
85096;BMP280;75436;53.502;10.030;2024-03-08T01:28:59;101878.81;;;0.62
85096;BMP280;75436;53.502;10.030;2024-03-08T01:31:25;101872.94;;;0.55
85096;BMP280;75436;53.502;10.030;2024-03-08T01:33:51;101871.28;;;0.61
85096;BMP280;75436;53.502;10.030;2024-03-08T01:36:16;101860.78;;;0.56
85096;BMP280;75436;53.502;10.030;2024-03-08T01:38:44;101853.25;;;0.54
85096;BMP280;75436;53.502;10.030;2024-03-08T01:41:10;101847.75;;;0.51
85096;BMP280;75436;53.502;10.030;2024-03-08T01:43:35;101847.56;;;0.46
85096;BMP280;75436;53.502;10.030;2024-03-08T01:46:01;101837.25;;;0.46
85096;BMP280;75436;53.502;10.030;2024-03-08T01:48:28;101821.25;;;0.55
85096;BMP280;75436;53.502;10.030;2024-03-08T01:50:55;101814.50;;;0.54
85096;BMP280;75436;53.502;10.030;2024-03-08T01:53:23;101809.53;;;0.53
85096;BMP280;75436;53.502;10.030;2024-03-08T01:55:54;101811.00;;;0.49
85096;BMP280;75436;53.502;10.030;2024-03-08T01:58:22;101796.69;;;0.46
85096;BMP280;75436;53.502;10.030;2024-03-08T02:00:49;101801.31;;;0.44
85096;BMP280;75436;53.502;10.030;2024-03-08T02:03:15;101800.72;;;0.42
85096;BMP280;75436;53.502;10.030;2024-03-08T02:05:44;101798.75;;;0.38
85096;BMP280;75436;53.502;10.030;2024-03-08T02:08:09;101797.06;;;0.32
85096;BMP280;75436;53.502;10.030;2024-03-08T02:10:41;101789.75;;;0.29
85096;BMP280;75436;53.502;10.030;2024-03-08T02:13:12;101783.44;;;0.25
85096;BMP280;75436;53.502;10.030;2024-03-08T02:15:54;101781.44;;;0.27
85096;BMP280;75436;53.502;10.030;2024-03-08T02:18:26;101777.88;;;0.28
85096;BMP280;75436;53.502;10.030;2024-03-08T02:20:53;101772.53;;;0.23
85096;BMP280;75436;53.502;10.030;2024-03-08T02:23:19;101760.91;;;0.14
85096;BMP280;75436;53.502;10.030;2024-03-08T02:25:46;101761.75;;;0.08
85096;BMP280;75436;53.502;10.030;2024-03-08T02:28:12;101762.19;;;0.05
85096;BMP280;75436;53.502;10.030;2024-03-08T02:30:39;101764.22;;;0.03
85096;BMP280;75436;53.502;10.030;2024-03-08T02:33:05;101753.47;;;0.06
85096;BMP280;75436;53.502;10.030;2024-03-08T02:35:31;101754.47;;;0.05
85096;BMP280;75436;53.502;10.030;2024-03-08T02:37:57;101746.34;;;0.02
85096;BMP280;75436;53.502;10.030;2024-03-08T02:40:23;101749.94;;;0.01
85096;BMP280;75436;53.502;10.030;2024-03-08T02:42:49;101747.41;;;-0.05
85096;BMP280;75436;53.502;10.030;2024-03-08T02:45:14;101740.47;;;-0.05
85096;BMP280;75436;53.502;10.030;2024-03-08T02:47:40;101737.69;;;-0.03
85096;BMP280;75436;53.502;10.030;2024-03-08T02:50:06;101725.91;;;0.00
85096;BMP280;75436;53.502;10.030;2024-03-08T02:52:33;101722.56;;;0.00
85096;BMP280;75436;53.502;10.030;2024-03-08T02:55:01;101723.63;;;-0.07
85096;BMP280;75436;53.502;10.030;2024-03-08T02:57:26;101718.31;;;-0.12
85096;BMP280;75436;53.502;10.030;2024-03-08T02:59:53;101712.78;;;-0.16
85096;BMP280;75436;53.502;10.030;2024-03-08T03:02:19;101705.25;;;-0.17
85096;BMP280;75436;53.502;10.030;2024-03-08T03:04:45;101704.84;;;-0.14
85096;BMP280;75436;53.502;10.030;2024-03-08T03:07:10;101704.09;;;-0.21
85096;BMP280;75436;53.502;10.030;2024-03-08T03:09:37;101695.22;;;-0.25
85096;BMP280;75436;53.502;10.030;2024-03-08T03:12:03;101700.66;;;-0.15
85096;BMP280;75436;53.502;10.030;2024-03-08T03:14:28;101696.13;;;-0.20
85096;BMP280;75436;53.502;10.030;2024-03-08T03:16:54;101691.75;;;-0.19
85096;BMP280;75436;53.502;10.030;2024-03-08T03:19:20;101683.16;;;-0.13
85096;BMP280;75436;53.502;10.030;2024-03-08T03:21:46;101681.03;;;-0.16
85096;BMP280;75436;53.502;10.030;2024-03-08T03:24:12;101683.59;;;-0.16
85096;BMP280;75436;53.502;10.030;2024-03-08T03:26:38;101673.47;;;-0.18
85096;BMP280;75436;53.502;10.030;2024-03-08T03:29:05;101676.91;;;-0.24
85096;BMP280;75436;53.502;10.030;2024-03-08T03:31:31;101669.81;;;-0.28
85096;BMP280;75436;53.502;10.030;2024-03-08T03:33:57;101668.84;;;-0.27
85096;BMP280;75436;53.502;10.030;2024-03-08T03:36:27;101671.41;;;-0.27
85096;BMP280;75436;53.502;10.030;2024-03-08T03:38:53;101672.97;;;-0.26
85096;BMP280;75436;53.502;10.030;2024-03-08T03:41:30;101671.81;;;-0.30
85096;BMP280;75436;53.502;10.030;2024-03-08T03:43:55;101662.53;;;-0.31
85096;BMP280;75436;53.502;10.030;2024-03-08T03:46:21;101653.75;;;-0.30
85096;BMP280;75436;53.502;10.030;2024-03-08T03:48:46;101656.50;;;-0.25
85096;BMP280;75436;53.502;10.030;2024-03-08T03:51:12;101655.94;;;-0.27
85096;BMP280;75436;53.502;10.030;2024-03-08T03:53:37;101656.06;;;-0.22
85096;BMP280;75436;53.502;10.030;2024-03-08T03:56:03;101646.13;;;-0.19
85096;BMP280;75436;53.502;10.030;2024-03-08T03:58:32;101643.94;;;-0.22
85096;BMP280;75436;53.502;10.030;2024-03-08T04:00:58;101646.91;;;-0.18
85096;BMP280;75436;53.502;10.030;2024-03-08T04:03:23;101640.16;;;-0.19
85096;BMP280;75436;53.502;10.030;2024-03-08T04:05:49;101638.13;;;-0.17
85096;BMP280;75436;53.502;10.030;2024-03-08T04:08:14;101642.50;;;-0.18
85096;BMP280;75436;53.502;10.030;2024-03-08T04:10:40;101650.91;;;-0.22
85096;BMP280;75436;53.502;10.030;2024-03-08T04:13:08;101645.09;;;-0.18
85096;BMP280;75436;53.502;10.030;2024-03-08T04:15:35;101649.03;;;-0.15
85096;BMP280;75436;53.502;10.030;2024-03-08T04:18:00;101634.97;;;-0.19
85096;BMP280;75436;53.502;10.030;2024-03-08T04:20:26;101633.41;;;-0.20
85096;BMP280;75436;53.502;10.030;2024-03-08T04:22:51;101628.69;;;-0.23
85096;BMP280;75436;53.502;10.030;2024-03-08T04:25:17;101632.28;;;-0.24
85096;BMP280;75436;53.502;10.030;2024-03-08T04:27:42;101628.91;;;-0.25
85096;BMP280;75436;53.502;10.030;2024-03-08T04:30:09;101629.56;;;-0.29
85096;BMP280;75436;53.502;10.030;2024-03-08T04:32:35;101622.81;;;-0.30
85096;BMP280;75436;53.502;10.030;2024-03-08T04:35:01;101629.75;;;-0.31
85096;BMP280;75436;53.502;10.030;2024-03-08T04:37:27;101614.78;;;-0.22
85096;BMP280;75436;53.502;10.030;2024-03-08T04:39:54;101616.00;;;-0.25
85096;BMP280;75436;53.502;10.030;2024-03-08T04:42:20;101612.84;;;-0.27
85096;BMP280;75436;53.502;10.030;2024-03-08T04:44:46;101612.06;;;-0.27
85096;BMP280;75436;53.502;10.030;2024-03-08T04:47:11;101616.09;;;-0.31
85096;BMP280;75436;53.502;10.030;2024-03-08T04:49:37;101616.22;;;-0.26
85096;BMP280;75436;53.502;10.030;2024-03-08T04:52:03;101618.00;;;-0.27
85096;BMP280;75436;53.502;10.030;2024-03-08T04:54:30;101607.91;;;-0.28
85096;BMP280;75436;53.502;10.030;2024-03-08T04:56:55;101606.53;;;-0.31
85096;BMP280;75436;53.502;10.030;2024-03-08T04:59:21;101604.91;;;-0.25
85096;BMP280;75436;53.502;10.030;2024-03-08T05:01:47;101602.53;;;-0.27
85096;BMP280;75436;53.502;10.030;2024-03-08T05:04:13;101602.91;;;-0.23
85096;BMP280;75436;53.502;10.030;2024-03-08T05:06:38;101597.16;;;-0.25
85096;BMP280;75436;53.502;10.030;2024-03-08T05:09:04;101595.78;;;-0.28
85096;BMP280;75436;53.502;10.030;2024-03-08T05:11:45;101594.59;;;-0.25
85096;BMP280;75436;53.502;10.030;2024-03-08T05:14:15;101599.94;;;-0.27
85096;BMP280;75436;53.502;10.030;2024-03-08T05:16:46;101589.84;;;-0.28
85096;BMP280;75436;53.502;10.030;2024-03-08T05:19:18;101590.28;;;-0.31
85096;BMP280;75436;53.502;10.030;2024-03-08T05:21:45;101597.56;;;-0.28
85096;BMP280;75436;53.502;10.030;2024-03-08T05:24:12;101592.22;;;-0.27
85096;BMP280;75436;53.502;10.030;2024-03-08T05:26:38;101600.16;;;-0.28
85096;BMP280;75436;53.502;10.030;2024-03-08T05:29:04;101595.44;;;-0.31
85096;BMP280;75436;53.502;10.030;2024-03-08T05:31:49;101591.44;;;-0.27
85096;BMP280;75436;53.502;10.030;2024-03-08T05:34:18;101593.44;;;-0.29
85096;BMP280;75436;53.502;10.030;2024-03-08T05:36:47;101589.06;;;-0.29
85096;BMP280;75436;53.502;10.030;2024-03-08T05:39:16;101581.72;;;-0.32
85096;BMP280;75436;53.502;10.030;2024-03-08T05:41:43;101577.38;;;-0.31
85096;BMP280;75436;53.502;10.030;2024-03-08T05:44:10;101579.56;;;-0.35
85096;BMP280;75436;53.502;10.030;2024-03-08T05:46:36;101584.72;;;-0.35
85096;BMP280;75436;53.502;10.030;2024-03-08T05:49:03;101576.41;;;-0.37
85096;BMP280;75436;53.502;10.030;2024-03-08T05:51:33;101579.22;;;-0.38
85096;BMP280;75436;53.502;10.030;2024-03-08T05:54:06;101582.34;;;-0.36
85096;BMP280;75436;53.502;10.030;2024-03-08T05:56:34;101585.94;;;-0.37
85096;BMP280;75436;53.502;10.030;2024-03-08T05:58:59;101589.53;;;-0.38
85096;BMP280;75436;53.502;10.030;2024-03-08T06:01:25;101588.72;;;-0.38
85096;BMP280;75436;53.502;10.030;2024-03-08T06:03:52;101595.03;;;-0.35
85096;BMP280;75436;53.502;10.030;2024-03-08T06:06:20;101592.66;;;-0.36
85096;BMP280;75436;53.502;10.030;2024-03-08T06:08:47;101594.06;;;-0.34
85096;BMP280;75436;53.502;10.030;2024-03-08T06:11:15;101590.66;;;-0.34
85096;BMP280;75436;53.502;10.030;2024-03-08T06:13:42;101595.44;;;-0.31
85096;BMP280;75436;53.502;10.030;2024-03-08T06:16:07;101594.06;;;-0.34
85096;BMP280;75436;53.502;10.030;2024-03-08T06:18:36;101594.25;;;-0.35
85096;BMP280;75436;53.502;10.030;2024-03-08T06:21:05;101596.38;;;-0.32
85096;BMP280;75436;53.502;10.030;2024-03-08T06:23:34;101591.47;;;-0.34
85096;BMP280;75436;53.502;10.030;2024-03-08T06:26:04;101586.59;;;-0.24
85096;BMP280;75436;53.502;10.030;2024-03-08T06:28:31;101590.13;;;-0.18
85096;BMP280;75436;53.502;10.030;2024-03-08T06:31:01;101594.63;;;-0.14
85096;BMP280;75436;53.502;10.030;2024-03-08T06:33:27;101587.25;;;-0.10
85096;BMP280;75436;53.502;10.030;2024-03-08T06:35:56;101583.94;;;0.00
85096;BMP280;75436;53.502;10.030;2024-03-08T06:38:25;101582.50;;;0.04
85096;BMP280;75436;53.502;10.030;2024-03-08T06:40:51;101577.44;;;0.09
85096;BMP280;75436;53.502;10.030;2024-03-08T06:43:17;101578.72;;;0.18
85096;BMP280;75436;53.502;10.030;2024-03-08T06:45:44;101569.88;;;0.26
85096;BMP280;75436;53.502;10.030;2024-03-08T06:48:19;101580.78;;;0.28
85096;BMP280;75436;53.502;10.030;2024-03-08T06:50:46;101575.63;;;0.39
85096;BMP280;75436;53.502;10.030;2024-03-08T06:53:12;101583.28;;;0.45
85096;BMP280;75436;53.502;10.030;2024-03-08T06:55:39;101579.50;;;0.59
85096;BMP280;75436;53.502;10.030;2024-03-08T06:58:05;101583.53;;;0.67
85096;BMP280;75436;53.502;10.030;2024-03-08T07:00:32;101594.00;;;0.71
85096;BMP280;75436;53.502;10.030;2024-03-08T07:02:57;101598.28;;;0.77
85096;BMP280;75436;53.502;10.030;2024-03-08T07:05:28;101613.25;;;0.87
85096;BMP280;75436;53.502;10.030;2024-03-08T07:07:56;101624.16;;;1.00
85096;BMP280;75436;53.502;10.030;2024-03-08T07:10:22;101636.63;;;1.03
85096;BMP280;75436;53.502;10.030;2024-03-08T07:12:50;101649.72;;;1.19
85096;BMP280;75436;53.502;10.030;2024-03-08T07:15:16;101684.47;;;1.23
85096;BMP280;75436;53.502;10.030;2024-03-08T07:17:44;101707.06;;;1.28
85096;BMP280;75436;53.502;10.030;2024-03-08T07:20:11;101723.69;;;1.32
85096;BMP280;75436;53.502;10.030;2024-03-08T07:22:38;101751.19;;;1.44
85096;BMP280;75436;53.502;10.030;2024-03-08T07:25:07;101776.38;;;1.48
85096;BMP280;75436;53.502;10.030;2024-03-08T07:27:47;101793.28;;;1.62
85096;BMP280;75436;53.502;10.030;2024-03-08T07:30:12;101820.84;;;1.68
85096;BMP280;75436;53.502;10.030;2024-03-08T07:32:38;101831.47;;;1.78
85096;BMP280;75436;53.502;10.030;2024-03-08T07:35:04;101845.63;;;1.87
85096;BMP280;75436;53.502;10.030;2024-03-08T07:37:29;101864.56;;;1.99
85096;BMP280;75436;53.502;10.030;2024-03-08T07:39:56;101890.00;;;2.02
85096;BMP280;75436;53.502;10.030;2024-03-08T07:42:23;101910.63;;;2.08
85096;BMP280;75436;53.502;10.030;2024-03-08T07:44:48;101930.69;;;2.12
85096;BMP280;75436;53.502;10.030;2024-03-08T07:47:15;101948.16;;;2.28
85096;BMP280;75436;53.502;10.030;2024-03-08T07:49:42;101952.09;;;2.31
85096;BMP280;75436;53.502;10.030;2024-03-08T07:52:09;101973.50;;;2.37
85096;BMP280;75436;53.502;10.030;2024-03-08T07:54:34;101987.94;;;2.45
85096;BMP280;75436;53.502;10.030;2024-03-08T07:57:00;101992.13;;;2.68
85096;BMP280;75436;53.502;10.030;2024-03-08T07:59:28;102004.50;;;2.67
85096;BMP280;75436;53.502;10.030;2024-03-08T08:01:54;102003.63;;;2.72
85096;BMP280;75436;53.502;10.030;2024-03-08T08:04:19;102023.75;;;2.93
85096;BMP280;75436;53.502;10.030;2024-03-08T08:06:49;102031.94;;;2.85
85096;BMP280;75436;53.502;10.030;2024-03-08T08:09:16;102044.66;;;2.75
85096;BMP280;75436;53.502;10.030;2024-03-08T08:11:47;102039.22;;;2.88
85096;BMP280;75436;53.502;10.030;2024-03-08T08:14:12;102040.72;;;2.96
85096;BMP280;75436;53.502;10.030;2024-03-08T08:16:38;102037.19;;;3.13
85096;BMP280;75436;53.502;10.030;2024-03-08T08:19:07;102060.41;;;3.08
85096;BMP280;75436;53.502;10.030;2024-03-08T08:21:35;102059.50;;;3.25
85096;BMP280;75436;53.502;10.030;2024-03-08T08:24:03;102056.94;;;3.41
85096;BMP280;75436;53.502;10.030;2024-03-08T08:26:29;102079.06;;;3.44
85096;BMP280;75436;53.502;10.030;2024-03-08T08:28:55;102087.19;;;3.47
85096;BMP280;75436;53.502;10.030;2024-03-08T08:31:21;102097.94;;;3.51
85096;BMP280;75436;53.502;10.030;2024-03-08T08:33:46;102112.22;;;3.76
85096;BMP280;75436;53.502;10.030;2024-03-08T08:36:14;102116.50;;;3.98
85096;BMP280;75436;53.502;10.030;2024-03-08T08:38:39;102117.41;;;4.03
85096;BMP280;75436;53.502;10.030;2024-03-08T08:41:05;102131.53;;;4.24
85096;BMP280;75436;53.502;10.030;2024-03-08T08:43:31;102145.56;;;4.39
85096;BMP280;75436;53.502;10.030;2024-03-08T08:45:58;102152.06;;;4.53
85096;BMP280;75436;53.502;10.030;2024-03-08T08:48:23;102165.31;;;4.67
85096;BMP280;75436;53.502;10.030;2024-03-08T08:50:50;102158.28;;;4.84
85096;BMP280;75436;53.502;10.030;2024-03-08T08:53:17;102177.34;;;5.43
85096;BMP280;75436;53.502;10.030;2024-03-08T08:55:43;102168.97;;;5.84
85096;BMP280;75436;53.502;10.030;2024-03-08T08:58:11;102198.19;;;5.86
85096;BMP280;75436;53.502;10.030;2024-03-08T09:00:36;102210.09;;;5.77
85096;BMP280;75436;53.502;10.030;2024-03-08T09:03:02;102198.00;;;5.92
85096;BMP280;75436;53.502;10.030;2024-03-08T09:05:27;102217.22;;;6.64
85096;BMP280;75436;53.502;10.030;2024-03-08T09:07:53;102213.16;;;6.47
85096;BMP280;75436;53.502;10.030;2024-03-08T09:10:19;102210.31;;;6.49
85096;BMP280;75436;53.502;10.030;2024-03-08T09:12:44;102220.47;;;7.17
85096;BMP280;75436;53.502;10.030;2024-03-08T09:15:10;102229.53;;;7.50
85096;BMP280;75436;53.502;10.030;2024-03-08T09:17:39;102233.38;;;8.04
85096;BMP280;75436;53.502;10.030;2024-03-08T09:20:10;102248.31;;;8.08
85096;BMP280;75436;53.502;10.030;2024-03-08T09:22:39;102247.03;;;8.35
85096;BMP280;75436;53.502;10.030;2024-03-08T09:25:05;102245.97;;;8.16
85096;BMP280;75436;53.502;10.030;2024-03-08T09:27:32;102240.16;;;7.90
85096;BMP280;75436;53.502;10.030;2024-03-08T09:29:59;102232.84;;;9.10
85096;BMP280;75436;53.502;10.030;2024-03-08T09:32:24;102243.47;;;9.43
85096;BMP280;75436;53.502;10.030;2024-03-08T09:34:50;102237.72;;;9.46
85096;BMP280;75436;53.502;10.030;2024-03-08T09:37:15;102225.78;;;9.10
85096;BMP280;75436;53.502;10.030;2024-03-08T09:39:41;102235.19;;;9.11
85096;BMP280;75436;53.502;10.030;2024-03-08T09:42:07;102234.75;;;8.75
85096;BMP280;75436;53.502;10.030;2024-03-08T09:44:33;102226.72;;;9.39
85096;BMP280;75436;53.502;10.030;2024-03-08T09:47:00;102225.91;;;9.91
85096;BMP280;75436;53.502;10.030;2024-03-08T09:49:27;102225.19;;;9.28
85096;BMP280;75436;53.502;10.030;2024-03-08T09:51:54;102215.72;;;9.37
85096;BMP280;75436;53.502;10.030;2024-03-08T09:54:21;102211.34;;;9.18
85096;BMP280;75436;53.502;10.030;2024-03-08T09:56:48;102211.09;;;9.09
85096;BMP280;75436;53.502;10.030;2024-03-08T09:59:16;102208.50;;;8.85
85096;BMP280;75436;53.502;10.030;2024-03-08T10:01:47;102200.09;;;9.07
85096;BMP280;75436;53.502;10.030;2024-03-08T10:04:13;102203.31;;;8.70
85096;BMP280;75436;53.502;10.030;2024-03-08T10:06:39;102201.00;;;9.46
85096;BMP280;75436;53.502;10.030;2024-03-08T10:09:06;102188.25;;;9.20
85096;BMP280;75436;53.502;10.030;2024-03-08T10:11:33;102188.06;;;9.59
85096;BMP280;75436;53.502;10.030;2024-03-08T10:14:00;102182.91;;;9.39
85096;BMP280;75436;53.502;10.030;2024-03-08T10:16:27;102193.22;;;9.21
85096;BMP280;75436;53.502;10.030;2024-03-08T10:18:53;102183.31;;;9.03
85096;BMP280;75436;53.502;10.030;2024-03-08T10:21:20;102179.22;;;8.68
85096;BMP280;75436;53.502;10.030;2024-03-08T10:23:46;102173.81;;;9.27
85096;BMP280;75436;53.502;10.030;2024-03-08T10:26:14;102172.66;;;9.43
85096;BMP280;75436;53.502;10.030;2024-03-08T10:28:44;102169.44;;;9.60
85096;BMP280;75436;53.502;10.030;2024-03-08T10:31:13;102158.84;;;9.32
85096;BMP280;75436;53.502;10.030;2024-03-08T10:33:42;102155.81;;;8.96
85096;BMP280;75436;53.502;10.030;2024-03-08T10:36:10;102156.06;;;9.62
85096;BMP280;75436;53.502;10.030;2024-03-08T10:38:40;102153.38;;;9.19
85096;BMP280;75436;53.502;10.030;2024-03-08T10:41:09;102155.31;;;8.89
85096;BMP280;75436;53.502;10.030;2024-03-08T10:43:49;102160.19;;;9.25
85096;BMP280;75436;53.502;10.030;2024-03-08T10:49:16;102140.53;;;9.70
85096;BMP280;75436;53.502;10.030;2024-03-08T10:51:43;102137.69;;;9.14
85096;BMP280;75436;53.502;10.030;2024-03-08T10:54:11;102120.63;;;9.64
85096;BMP280;75436;53.502;10.030;2024-03-08T10:56:38;102133.13;;;9.77
85096;BMP280;75436;53.502;10.030;2024-03-08T10:59:06;102119.53;;;9.23
85096;BMP280;75436;53.502;10.030;2024-03-08T11:01:33;102116.16;;;9.65
85096;BMP280;75436;53.502;10.030;2024-03-08T11:03:59;102113.84;;;10.71
85096;BMP280;75436;53.502;10.030;2024-03-08T11:09:03;102110.00;;;11.59
85096;BMP280;75436;53.502;10.030;2024-03-08T11:11:38;102090.81;;;12.30
85096;BMP280;75436;53.502;10.030;2024-03-08T11:14:42;102102.03;;;11.28
85096;BMP280;75436;53.502;10.030;2024-03-08T11:17:13;102086.25;;;12.22
85096;BMP280;75436;53.502;10.030;2024-03-08T11:19:46;102085.78;;;11.26
85096;BMP280;75436;53.502;10.030;2024-03-08T11:22:21;102095.53;;;11.75
85096;BMP280;75436;53.502;10.030;2024-03-08T11:24:49;102086.72;;;11.66
85096;BMP280;75436;53.502;10.030;2024-03-08T11:27:15;102071.69;;;11.35
85096;BMP280;75436;53.502;10.030;2024-03-08T11:29:40;102080.81;;;11.24
85096;BMP280;75436;53.502;10.030;2024-03-08T11:32:15;102072.25;;;11.63
85096;BMP280;75436;53.502;10.030;2024-03-08T11:34:47;102070.28;;;11.06
85096;BMP280;75436;53.502;10.030;2024-03-08T11:37:16;102059.31;;;11.35
85096;BMP280;75436;53.502;10.030;2024-03-08T11:40:01;102071.03;;;11.74
85096;BMP280;75436;53.502;10.030;2024-03-08T11:42:30;102055.03;;;12.02
85096;BMP280;75436;53.502;10.030;2024-03-08T11:44:56;102049.38;;;12.22
85096;BMP280;75436;53.502;10.030;2024-03-08T11:47:21;102051.78;;;12.45
85096;BMP280;75436;53.502;10.030;2024-03-08T11:49:47;102049.47;;;11.59
85096;BMP280;75436;53.502;10.030;2024-03-08T11:52:14;102054.69;;;10.91
85096;BMP280;75436;53.502;10.030;2024-03-08T11:54:41;102050.44;;;11.31
85096;BMP280;75436;53.502;10.030;2024-03-08T11:57:08;102041.69;;;11.36
85096;BMP280;75436;53.502;10.030;2024-03-08T11:59:35;102039.59;;;11.51
85096;BMP280;75436;53.502;10.030;2024-03-08T12:02:03;102030.13;;;11.50
85096;BMP280;75436;53.502;10.030;2024-03-08T12:04:30;102028.00;;;11.52
85096;BMP280;75436;53.502;10.030;2024-03-08T12:06:59;102023.09;;;11.77
85096;BMP280;75436;53.502;10.030;2024-03-08T12:09:34;102024.78;;;12.13
85096;BMP280;75436;53.502;10.030;2024-03-08T12:12:01;102016.66;;;11.96
85096;BMP280;75436;53.502;10.030;2024-03-08T12:14:29;102029.91;;;11.33
85096;BMP280;75436;53.502;10.030;2024-03-08T12:16:55;102012.09;;;11.88
85096;BMP280;75436;53.502;10.030;2024-03-08T12:19:20;102011.81;;;12.65
85096;BMP280;75436;53.502;10.030;2024-03-08T12:21:46;102004.00;;;11.85
85096;BMP280;75436;53.502;10.030;2024-03-08T12:24:18;102001.53;;;12.42
85096;BMP280;75436;53.502;10.030;2024-03-08T12:26:48;101985.25;;;11.60
85096;BMP280;75436;53.502;10.030;2024-03-08T12:31:39;101983.13;;;12.63
85096;BMP280;75436;53.502;10.030;2024-03-08T12:34:07;101981.72;;;12.31
85096;BMP280;75436;53.502;10.030;2024-03-08T12:36:35;101986.06;;;12.83
85096;BMP280;75436;53.502;10.030;2024-03-08T12:39:05;101974.34;;;12.68
85096;BMP280;75436;53.502;10.030;2024-03-08T12:41:32;101963.63;;;13.37
85096;BMP280;75436;53.502;10.030;2024-03-08T12:44:04;101964.66;;;13.58
85096;BMP280;75436;53.502;10.030;2024-03-08T12:46:32;101957.19;;;13.00
85096;BMP280;75436;53.502;10.030;2024-03-08T12:48:58;101952.66;;;13.90
85096;BMP280;75436;53.502;10.030;2024-03-08T12:51:24;101948.97;;;13.23
85096;BMP280;75436;53.502;10.030;2024-03-08T12:53:50;101937.84;;;13.34
85096;BMP280;75436;53.502;10.030;2024-03-08T12:56:29;101940.16;;;13.66
85096;BMP280;75436;53.502;10.030;2024-03-08T12:58:57;101935.09;;;13.09
85096;BMP280;75436;53.502;10.030;2024-03-08T13:01:23;101928.91;;;13.52
85096;BMP280;75436;53.502;10.030;2024-03-08T13:03:48;101930.56;;;13.40
85096;BMP280;75436;53.502;10.030;2024-03-08T13:06:15;101931.22;;;13.15
85096;BMP280;75436;53.502;10.030;2024-03-08T13:08:41;101929.56;;;12.98
85096;BMP280;75436;53.502;10.030;2024-03-08T13:11:09;101930.22;;;12.25
85096;BMP280;75436;53.502;10.030;2024-03-08T13:13:39;101924.63;;;13.64
85096;BMP280;75436;53.502;10.030;2024-03-08T13:16:06;101913.16;;;13.31
85096;BMP280;75436;53.502;10.030;2024-03-08T13:18:36;101912.59;;;13.12
85096;BMP280;75436;53.502;10.030;2024-03-08T13:21:01;101908.50;;;13.36
85096;BMP280;75436;53.502;10.030;2024-03-08T13:23:33;101899.75;;;12.67
85096;BMP280;75436;53.502;10.030;2024-03-08T13:26:05;101889.50;;;12.87
85096;BMP280;75436;53.502;10.030;2024-03-08T13:28:32;101882.66;;;13.55
85096;BMP280;75436;53.502;10.030;2024-03-08T13:31:05;101881.81;;;13.84
85096;BMP280;75436;53.502;10.030;2024-03-08T13:33:32;101884.47;;;13.07
85096;BMP280;75436;53.502;10.030;2024-03-08T13:36:01;101874.66;;;14.01
85096;BMP280;75436;53.502;10.030;2024-03-08T13:38:47;101873.06;;;13.67
85096;BMP280;75436;53.502;10.030;2024-03-08T13:41:14;101865.50;;;12.97
85096;BMP280;75436;53.502;10.030;2024-03-08T13:43:42;101871.81;;;12.66
85096;BMP280;75436;53.502;10.030;2024-03-08T13:46:08;101863.50;;;12.73
85096;BMP280;75436;53.502;10.030;2024-03-08T13:48:35;101863.00;;;12.71
85096;BMP280;75436;53.502;10.030;2024-03-08T13:51:03;101847.31;;;13.89
85096;BMP280;75436;53.502;10.030;2024-03-08T13:53:31;101851.53;;;13.90
85096;BMP280;75436;53.502;10.030;2024-03-08T13:55:57;101843.28;;;13.83
85096;BMP280;75436;53.502;10.030;2024-03-08T13:58:22;101830.75;;;13.42
85096;BMP280;75436;53.502;10.030;2024-03-08T14:00:48;101833.34;;;12.87